sensor_id;sensor_type;location;lat;lon;timestamp;temperature;humidity
56076;DHT22;41951;49.022;12.066;2022-12-08T00:01:18;2.30;99.90
56076;DHT22;41951;49.022;12.066;2022-12-08T00:03:45;2.30;99.90
56076;DHT22;41951;49.022;12.066;2022-12-08T00:09:16;2.30;99.90
56076;DHT22;41951;49.022;12.066;2022-12-08T00:14:34;2.20;99.90
56076;DHT22;41951;49.022;12.066;2022-12-08T00:17:01;2.20;99.90
56076;DHT22;41951;49.022;12.066;2022-12-08T00:19:28;2.10;99.90
56076;DHT22;41951;49.022;12.066;2022-12-08T00:21:54;2.00;99.90
56076;DHT22;41951;49.022;12.066;2022-12-08T00:24:21;2.00;99.90
56076;DHT22;41951;49.022;12.066;2022-12-08T00:26:47;2.00;99.90
56076;DHT22;41951;49.022;12.066;2022-12-08T00:29:13;2.00;99.90
56076;DHT22;41951;49.022;12.066;2022-12-08T00:31:39;2.00;99.90
56076;DHT22;41951;49.022;12.066;2022-12-08T00:34:05;2.00;99.90
56076;DHT22;41951;49.022;12.066;2022-12-08T00:36:31;2.00;99.90
56076;DHT22;41951;49.022;12.066;2022-12-08T00:38:57;2.00;99.90
56076;DHT22;41951;49.022;12.066;2022-12-08T00:41:24;2.00;99.90
56076;DHT22;41951;49.022;12.066;2022-12-08T00:44:12;1.90;99.90
56076;DHT22;41951;49.022;12.066;2022-12-08T00:46:38;1.90;99.90
56076;DHT22;41951;49.022;12.066;2022-12-08T00:49:05;2.10;99.90
56076;DHT22;41951;49.022;12.066;2022-12-08T00:51:31;1.90;99.90
56076;DHT22;41951;49.022;12.066;2022-12-08T00:53:57;1.90;99.90
56076;DHT22;41951;49.022;12.066;2022-12-08T00:56:23;1.80;99.90
56076;DHT22;41951;49.022;12.066;2022-12-08T00:58:48;1.80;99.90
56076;DHT22;41951;49.022;12.066;2022-12-08T01:01:14;1.80;99.90
56076;DHT22;41951;49.022;12.066;2022-12-08T01:03:41;1.80;99.90
56076;DHT22;41951;49.022;12.066;2022-12-08T01:06:07;1.80;99.90
56076;DHT22;41951;49.022;12.066;2022-12-08T01:08:33;1.80;99.90
56076;DHT22;41951;49.022;12.066;2022-12-08T01:11:11;1.80;99.90
56076;DHT22;41951;49.022;12.066;2022-12-08T01:13:37;1.80;99.90
56076;DHT22;41951;49.022;12.066;2022-12-08T01:16:04;1.80;99.90
56076;DHT22;41951;49.022;12.066;2022-12-08T01:18:30;1.80;99.90
56076;DHT22;41951;49.022;12.066;2022-12-08T01:21:04;1.80;99.90
56076;DHT22;41951;49.022;12.066;2022-12-08T01:23:31;1.90;99.90
56076;DHT22;41951;49.022;12.066;2022-12-08T01:26:05;1.90;99.90
56076;DHT22;41951;49.022;12.066;2022-12-08T01:28:31;1.90;99.90
56076;DHT22;41951;49.022;12.066;2022-12-08T01:30:58;1.90;99.90
56076;DHT22;41951;49.022;12.066;2022-12-08T01:33:25;1.90;99.90
56076;DHT22;41951;49.022;12.066;2022-12-08T01:35:51;1.90;99.90
56076;DHT22;41951;49.022;12.066;2022-12-08T01:38:17;1.80;99.90
56076;DHT22;41951;49.022;12.066;2022-12-08T01:40:43;1.80;99.90
56076;DHT22;41951;49.022;12.066;2022-12-08T01:43:19;2.80;99.90
56076;DHT22;41951;49.022;12.066;2022-12-08T01:45:45;1.90;99.90
56076;DHT22;41951;49.022;12.066;2022-12-08T01:48:20;1.90;99.90
56076;DHT22;41951;49.022;12.066;2022-12-08T01:50:47;1.90;99.90
56076;DHT22;41951;49.022;12.066;2022-12-08T01:53:27;1.90;99.90
56076;DHT22;41951;49.022;12.066;2022-12-08T01:55:57;2.00;99.90
56076;DHT22;41951;49.022;12.066;2022-12-08T01:58:33;1.90;99.90
56076;DHT22;41951;49.022;12.066;2022-12-08T02:01:00;1.90;99.90
56076;DHT22;41951;49.022;12.066;2022-12-08T02:03:34;1.90;99.90
56076;DHT22;41951;49.022;12.066;2022-12-08T02:06:03;1.90;99.90
56076;DHT22;41951;49.022;12.066;2022-12-08T02:08:30;1.90;99.90
56076;DHT22;41951;49.022;12.066;2022-12-08T02:10:56;1.90;99.90
56076;DHT22;41951;49.022;12.066;2022-12-08T02:13:22;1.90;99.90
56076;DHT22;41951;49.022;12.066;2022-12-08T02:21:24;2.10;99.90
56076;DHT22;41951;49.022;12.066;2022-12-08T02:43:23;1.70;99.90
56076;DHT22;41951;49.022;12.066;2022-12-08T02:45:59;1.70;99.90
56076;DHT22;41951;49.022;12.066;2022-12-08T02:48:29;1.70;99.90
56076;DHT22;41951;49.022;12.066;2022-12-08T02:50:56;1.70;99.90
56076;DHT22;41951;49.022;12.066;2022-12-08T02:53:22;1.80;99.90
56076;DHT22;41951;49.022;12.066;2022-12-08T02:58:53;1.80;99.90
56076;DHT22;41951;49.022;12.066;2022-12-08T03:07:05;1.80;99.90
56076;DHT22;41951;49.022;12.066;2022-12-08T03:09:41;1.80;99.90
56076;DHT22;41951;49.022;12.066;2022-12-08T03:12:15;1.80;99.90
56076;DHT22;41951;49.022;12.066;2022-12-08T03:14:47;1.70;99.90
56076;DHT22;41951;49.022;12.066;2022-12-08T03:17:14;1.80;99.90
56076;DHT22;41951;49.022;12.066;2022-12-08T03:19:44;1.70;99.90
56076;DHT22;41951;49.022;12.066;2022-12-08T03:22:11;1.70;99.90
56076;DHT22;41951;49.022;12.066;2022-12-08T03:24:39;1.80;99.90
56076;DHT22;41951;49.022;12.066;2022-12-08T03:27:10;1.70;99.90
56076;DHT22;41951;49.022;12.066;2022-12-08T03:29:36;1.80;99.90
56076;DHT22;41951;49.022;12.066;2022-12-08T03:32:28;1.80;99.90
56076;DHT22;41951;49.022;12.066;2022-12-08T03:34:55;1.70;99.90
56076;DHT22;41951;49.022;12.066;2022-12-08T03:37:22;1.90;99.90
56076;DHT22;41951;49.022;12.066;2022-12-08T03:39:48;1.80;99.90
56076;DHT22;41951;49.022;12.066;2022-12-08T03:42:13;1.80;99.90
56076;DHT22;41951;49.022;12.066;2022-12-08T03:44:39;1.90;99.90
56076;DHT22;41951;49.022;12.066;2022-12-08T03:47:05;1.80;99.90
56076;DHT22;41951;49.022;12.066;2022-12-08T03:49:31;1.80;99.90
56076;DHT22;41951;49.022;12.066;2022-12-08T03:51:56;1.90;99.90
56076;DHT22;41951;49.022;12.066;2022-12-08T03:54:22;1.90;99.90
56076;DHT22;41951;49.022;12.066;2022-12-08T03:56:48;1.80;99.90
56076;DHT22;41951;49.022;12.066;2022-12-08T03:59:14;1.70;99.90
56076;DHT22;41951;49.022;12.066;2022-12-08T04:01:39;1.70;99.90
56076;DHT22;41951;49.022;12.066;2022-12-08T04:04:05;1.70;99.90
56076;DHT22;41951;49.022;12.066;2022-12-08T04:06:31;1.70;99.90
56076;DHT22;41951;49.022;12.066;2022-12-08T04:08:57;1.70;99.90
56076;DHT22;41951;49.022;12.066;2022-12-08T04:11:22;1.70;99.90
56076;DHT22;41951;49.022;12.066;2022-12-08T04:13:48;1.80;99.90
56076;DHT22;41951;49.022;12.066;2022-12-08T04:16:15;2.00;99.90
56076;DHT22;41951;49.022;12.066;2022-12-08T04:18:41;1.80;99.90
56076;DHT22;41951;49.022;12.066;2022-12-08T04:21:07;1.80;99.90
56076;DHT22;41951;49.022;12.066;2022-12-08T04:23:33;1.90;99.90
56076;DHT22;41951;49.022;12.066;2022-12-08T04:25:58;1.90;99.90
56076;DHT22;41951;49.022;12.066;2022-12-08T04:28:24;1.90;99.90
56076;DHT22;41951;49.022;12.066;2022-12-08T04:30:50;1.90;99.90
56076;DHT22;41951;49.022;12.066;2022-12-08T04:33:15;1.80;99.90
56076;DHT22;41951;49.022;12.066;2022-12-08T04:35:41;1.80;99.90
56076;DHT22;41951;49.022;12.066;2022-12-08T04:38:07;1.80;99.90
56076;DHT22;41951;49.022;12.066;2022-12-08T04:40:33;1.80;99.90
56076;DHT22;41951;49.022;12.066;2022-12-08T04:42:58;1.80;99.90
56076;DHT22;41951;49.022;12.066;2022-12-08T04:45:25;1.70;99.90
56076;DHT22;41951;49.022;12.066;2022-12-08T04:47:51;1.70;99.90
56076;DHT22;41951;49.022;12.066;2022-12-08T04:50:16;1.70;99.90
56076;DHT22;41951;49.022;12.066;2022-12-08T04:52:42;1.70;99.90
56076;DHT22;41951;49.022;12.066;2022-12-08T04:55:08;1.60;99.90
56076;DHT22;41951;49.022;12.066;2022-12-08T04:57:34;1.60;99.90
56076;DHT22;41951;49.022;12.066;2022-12-08T04:59:59;1.50;99.90
56076;DHT22;41951;49.022;12.066;2022-12-08T05:02:25;1.60;99.90
56076;DHT22;41951;49.022;12.066;2022-12-08T05:04:50;1.50;99.90
56076;DHT22;41951;49.022;12.066;2022-12-08T05:07:16;1.50;99.90
56076;DHT22;41951;49.022;12.066;2022-12-08T05:09:42;1.40;99.90
56076;DHT22;41951;49.022;12.066;2022-12-08T05:12:07;1.40;99.90
56076;DHT22;41951;49.022;12.066;2022-12-08T05:14:33;1.40;99.90
56076;DHT22;41951;49.022;12.066;2022-12-08T05:16:58;1.30;99.90
56076;DHT22;41951;49.022;12.066;2022-12-08T05:19:24;1.40;99.90
56076;DHT22;41951;49.022;12.066;2022-12-08T05:21:50;1.30;99.90
56076;DHT22;41951;49.022;12.066;2022-12-08T05:24:15;1.30;99.90
56076;DHT22;41951;49.022;12.066;2022-12-08T05:26:42;1.40;99.90
56076;DHT22;41951;49.022;12.066;2022-12-08T05:29:08;1.30;99.90
56076;DHT22;41951;49.022;12.066;2022-12-08T05:31:33;1.40;99.90
56076;DHT22;41951;49.022;12.066;2022-12-08T05:33:59;1.40;99.90
56076;DHT22;41951;49.022;12.066;2022-12-08T05:36:25;1.40;99.90
56076;DHT22;41951;49.022;12.066;2022-12-08T05:38:50;1.50;99.90
56076;DHT22;41951;49.022;12.066;2022-12-08T05:41:18;1.50;99.90
56076;DHT22;41951;49.022;12.066;2022-12-08T05:43:44;1.50;99.90
56076;DHT22;41951;49.022;12.066;2022-12-08T05:46:10;1.30;99.90
56076;DHT22;41951;49.022;12.066;2022-12-08T05:48:36;1.60;99.90
56076;DHT22;41951;49.022;12.066;2022-12-08T05:51:02;1.50;99.90
56076;DHT22;41951;49.022;12.066;2022-12-08T05:53:28;1.50;99.90
56076;DHT22;41951;49.022;12.066;2022-12-08T05:55:54;1.50;99.90
56076;DHT22;41951;49.022;12.066;2022-12-08T05:58:21;1.40;99.90
56076;DHT22;41951;49.022;12.066;2022-12-08T06:00:49;1.30;99.90
56076;DHT22;41951;49.022;12.066;2022-12-08T06:03:16;1.20;99.90
56076;DHT22;41951;49.022;12.066;2022-12-08T06:05:43;1.20;99.90
56076;DHT22;41951;49.022;12.066;2022-12-08T06:08:09;1.10;99.90
56076;DHT22;41951;49.022;12.066;2022-12-08T06:10:37;1.20;99.90
56076;DHT22;41951;49.022;12.066;2022-12-08T06:13:03;1.20;99.90
56076;DHT22;41951;49.022;12.066;2022-12-08T06:15:29;1.10;99.90
56076;DHT22;41951;49.022;12.066;2022-12-08T06:17:54;1.20;99.90
56076;DHT22;41951;49.022;12.066;2022-12-08T06:20:20;1.20;99.90
56076;DHT22;41951;49.022;12.066;2022-12-08T06:22:45;1.10;99.90
56076;DHT22;41951;49.022;12.066;2022-12-08T06:25:11;4.30;99.90
56076;DHT22;41951;49.022;12.066;2022-12-08T06:27:37;1.10;99.90
56076;DHT22;41951;49.022;12.066;2022-12-08T06:30:03;1.10;99.90
56076;DHT22;41951;49.022;12.066;2022-12-08T06:32:29;1.10;99.90
56076;DHT22;41951;49.022;12.066;2022-12-08T06:34:55;1.20;99.90
56076;DHT22;41951;49.022;12.066;2022-12-08T06:37:20;1.20;99.90
56076;DHT22;41951;49.022;12.066;2022-12-08T06:39:46;1.30;99.90
56076;DHT22;41951;49.022;12.066;2022-12-08T06:42:11;1.30;99.90
56076;DHT22;41951;49.022;12.066;2022-12-08T06:44:56;0.50;99.90
56076;DHT22;41951;49.022;12.066;2022-12-08T06:47:22;1.40;99.90
56076;DHT22;41951;49.022;12.066;2022-12-08T06:49:47;1.20;99.90
56076;DHT22;41951;49.022;12.066;2022-12-08T06:52:13;1.20;99.90
56076;DHT22;41951;49.022;12.066;2022-12-08T06:54:39;1.20;99.90
56076;DHT22;41951;49.022;12.066;2022-12-08T06:57:05;1.10;99.90
56076;DHT22;41951;49.022;12.066;2022-12-08T06:59:31;1.10;99.90
56076;DHT22;41951;49.022;12.066;2022-12-08T09:44:20;0.20;99.90
56076;DHT22;41951;49.022;12.066;2022-12-08T09:53:49;0.30;99.90
56076;DHT22;41951;49.022;12.066;2022-12-08T09:56:20;0.40;99.90
56076;DHT22;41951;49.022;12.066;2022-12-08T09:59:03;0.50;99.90
56076;DHT22;41951;49.022;12.066;2022-12-08T10:01:32;0.50;99.90
56076;DHT22;41951;49.022;12.066;2022-12-08T10:03:59;0.60;99.90
56076;DHT22;41951;49.022;12.066;2022-12-08T10:06:43;0.70;99.90
56076;DHT22;41951;49.022;12.066;2022-12-08T10:09:23;0.60;99.90
56076;DHT22;41951;49.022;12.066;2022-12-08T10:12:04;0.60;99.90
56076;DHT22;41951;49.022;12.066;2022-12-08T10:17:10;0.70;99.90
56076;DHT22;41951;49.022;12.066;2022-12-08T10:19:38;0.80;99.90
56076;DHT22;41951;49.022;12.066;2022-12-08T10:22:19;0.80;99.90
56076;DHT22;41951;49.022;12.066;2022-12-08T10:27:29;0.90;99.90
56076;DHT22;41951;49.022;12.066;2022-12-08T10:29:57;0.90;99.90
56076;DHT22;41951;49.022;12.066;2022-12-08T10:32:23;0.90;99.90
56076;DHT22;41951;49.022;12.066;2022-12-08T10:35:16;1.00;99.90
56076;DHT22;41951;49.022;12.066;2022-12-08T10:40:22;1.20;99.90
56076;DHT22;41951;49.022;12.066;2022-12-08T10:42:51;1.30;99.90
56076;DHT22;41951;49.022;12.066;2022-12-08T10:45:28;1.30;99.90
56076;DHT22;41951;49.022;12.066;2022-12-08T10:53:19;1.30;99.90
56076;DHT22;41951;49.022;12.066;2022-12-08T10:56:10;1.30;99.90
56076;DHT22;41951;49.022;12.066;2022-12-08T10:58:40;1.40;99.90
56076;DHT22;41951;49.022;12.066;2022-12-08T11:06:16;1.10;99.90
56076;DHT22;41951;49.022;12.066;2022-12-08T11:08:45;1.10;99.90
56076;DHT22;41951;49.022;12.066;2022-12-08T11:11:11;1.10;99.90
56076;DHT22;41951;49.022;12.066;2022-12-08T11:13:40;1.10;99.90
56076;DHT22;41951;49.022;12.066;2022-12-08T11:16:06;1.20;99.90
56076;DHT22;41951;49.022;12.066;2022-12-08T11:18:43;1.10;99.90
56076;DHT22;41951;49.022;12.066;2022-12-08T11:21:32;1.10;99.90
56076;DHT22;41951;49.022;12.066;2022-12-08T11:24:25;1.10;99.90
56076;DHT22;41951;49.022;12.066;2022-12-08T11:27:00;1.00;99.90
56076;DHT22;41951;49.022;12.066;2022-12-08T11:29:31;1.00;99.90
56076;DHT22;41951;49.022;12.066;2022-12-08T11:32:01;1.10;99.90
56076;DHT22;41951;49.022;12.066;2022-12-08T11:34:43;1.10;99.90
56076;DHT22;41951;49.022;12.066;2022-12-08T11:40:03;1.30;99.90
56076;DHT22;41951;49.022;12.066;2022-12-08T11:42:34;1.40;99.90
56076;DHT22;41951;49.022;12.066;2022-12-08T11:45:11;1.40;99.90
56076;DHT22;41951;49.022;12.066;2022-12-08T11:47:43;1.50;99.90
56076;DHT22;41951;49.022;12.066;2022-12-08T11:50:49;1.60;99.90
56076;DHT22;41951;49.022;12.066;2022-12-08T11:56:19;1.40;99.90
56076;DHT22;41951;49.022;12.066;2022-12-08T11:58:48;1.50;99.90
56076;DHT22;41951;49.022;12.066;2022-12-08T12:01:17;1.50;99.90
56076;DHT22;41951;49.022;12.066;2022-12-08T12:04:49;1.60;99.90
56076;DHT22;41951;49.022;12.066;2022-12-08T12:07:15;1.60;99.90
56076;DHT22;41951;49.022;12.066;2022-12-08T12:12:37;1.60;99.90
56076;DHT22;41951;49.022;12.066;2022-12-08T12:18:23;1.60;99.90
56076;DHT22;41951;49.022;12.066;2022-12-08T12:20:58;1.70;99.90
56076;DHT22;41951;49.022;12.066;2022-12-08T12:26:05;1.60;99.90
56076;DHT22;41951;49.022;12.066;2022-12-08T12:31:11;1.60;99.90
56076;DHT22;41951;49.022;12.066;2022-12-08T12:33:39;1.60;99.90
56076;DHT22;41951;49.022;12.066;2022-12-08T12:36:07;1.60;99.90
56076;DHT22;41951;49.022;12.066;2022-12-08T12:38:36;1.70;99.90
56076;DHT22;41951;49.022;12.066;2022-12-08T12:46:37;1.60;99.90
56076;DHT22;41951;49.022;12.066;2022-12-08T12:57:38;1.60;99.90
56076;DHT22;41951;49.022;12.066;2022-12-08T13:07:42;1.70;99.90
56076;DHT22;41951;49.022;12.066;2022-12-08T13:10:32;1.70;99.90
56076;DHT22;41951;49.022;12.066;2022-12-08T13:16:12;1.60;99.90
56076;DHT22;41951;49.022;12.066;2022-12-08T13:18:46;1.60;99.90
56076;DHT22;41951;49.022;12.066;2022-12-08T13:21:23;1.50;99.90
56076;DHT22;41951;49.022;12.066;2022-12-08T13:26:25;1.60;99.90
56076;DHT22;41951;49.022;12.066;2022-12-08T13:34:11;1.70;99.90
56076;DHT22;41951;49.022;12.066;2022-12-08T13:47:29;1.80;99.90
56076;DHT22;41951;49.022;12.066;2022-12-08T13:50:11;1.80;99.90
56076;DHT22;41951;49.022;12.066;2022-12-08T13:53:00;1.80;99.90
56076;DHT22;41951;49.022;12.066;2022-12-08T13:55:48;1.90;99.90
56076;DHT22;41951;49.022;12.066;2022-12-08T13:58:16;1.90;99.90
56076;DHT22;41951;49.022;12.066;2022-12-08T14:00:42;1.90;99.90
56076;DHT22;41951;49.022;12.066;2022-12-08T14:03:10;1.90;99.90
56076;DHT22;41951;49.022;12.066;2022-12-08T14:05:41;2.00;99.90
56076;DHT22;41951;49.022;12.066;2022-12-08T14:08:44;2.10;99.90
56076;DHT22;41951;49.022;12.066;2022-12-08T14:11:20;2.20;99.90
56076;DHT22;41951;49.022;12.066;2022-12-08T14:13:59;2.20;99.90
56076;DHT22;41951;49.022;12.066;2022-12-08T14:16:27;2.30;99.90
56076;DHT22;41951;49.022;12.066;2022-12-08T14:18:53;2.30;99.90
56076;DHT22;41951;49.022;12.066;2022-12-08T14:21:19;2.40;99.90
56076;DHT22;41951;49.022;12.066;2022-12-08T14:23:44;2.40;99.90
56076;DHT22;41951;49.022;12.066;2022-12-08T14:26:11;2.30;99.90
56076;DHT22;41951;49.022;12.066;2022-12-08T14:28:37;2.20;99.90
56076;DHT22;41951;49.022;12.066;2022-12-08T14:31:03;2.20;99.90
56076;DHT22;41951;49.022;12.066;2022-12-08T14:33:30;2.10;99.90
56076;DHT22;41951;49.022;12.066;2022-12-08T14:35:56;2.10;99.90
56076;DHT22;41951;49.022;12.066;2022-12-08T14:38:23;2.10;99.90
56076;DHT22;41951;49.022;12.066;2022-12-08T14:41:08;2.10;99.90
56076;DHT22;41951;49.022;12.066;2022-12-08T14:43:33;2.00;99.90
56076;DHT22;41951;49.022;12.066;2022-12-08T14:46:11;2.00;99.90
56076;DHT22;41951;49.022;12.066;2022-12-08T14:48:42;2.00;99.90
56076;DHT22;41951;49.022;12.066;2022-12-08T14:51:29;2.00;99.90
56076;DHT22;41951;49.022;12.066;2022-12-08T14:54:08;2.00;99.90
56076;DHT22;41951;49.022;12.066;2022-12-08T14:56:48;2.00;99.90
56076;DHT22;41951;49.022;12.066;2022-12-08T15:02:22;1.80;99.90
56076;DHT22;41951;49.022;12.066;2022-12-08T15:05:03;1.70;99.90
56076;DHT22;41951;49.022;12.066;2022-12-08T15:07:36;1.50;99.90
56076;DHT22;41951;49.022;12.066;2022-12-08T15:10:18;1.50;99.90
56076;DHT22;41951;49.022;12.066;2022-12-08T15:13:05;1.50;99.90
56076;DHT22;41951;49.022;12.066;2022-12-08T15:15:45;1.50;99.90
56076;DHT22;41951;49.022;12.066;2022-12-08T15:20:53;1.50;99.90
56076;DHT22;41951;49.022;12.066;2022-12-08T15:23:25;1.60;99.90
56076;DHT22;41951;49.022;12.066;2022-12-08T15:25:52;1.50;99.90
56076;DHT22;41951;49.022;12.066;2022-12-08T15:28:20;1.40;99.90
56076;DHT22;41951;49.022;12.066;2022-12-08T15:30:47;1.30;99.90
56076;DHT22;41951;49.022;12.066;2022-12-08T15:33:12;1.20;99.90
56076;DHT22;41951;49.022;12.066;2022-12-08T15:35:38;1.10;99.90
56076;DHT22;41951;49.022;12.066;2022-12-08T15:38:05;1.10;99.90
56076;DHT22;41951;49.022;12.066;2022-12-08T15:40:30;1.00;99.90
56076;DHT22;41951;49.022;12.066;2022-12-08T15:42:56;1.10;99.90
56076;DHT22;41951;49.022;12.066;2022-12-08T15:45:26;1.10;99.90
56076;DHT22;41951;49.022;12.066;2022-12-08T15:47:53;1.00;99.90
56076;DHT22;41951;49.022;12.066;2022-12-08T15:50:21;1.00;99.90
56076;DHT22;41951;49.022;12.066;2022-12-08T15:52:47;1.00;99.90
56076;DHT22;41951;49.022;12.066;2022-12-08T15:55:19;1.00;99.90
56076;DHT22;41951;49.022;12.066;2022-12-08T15:57:47;1.00;99.90
56076;DHT22;41951;49.022;12.066;2022-12-08T16:00:29;0.90;99.90
56076;DHT22;41951;49.022;12.066;2022-12-08T16:02:56;0.90;99.90
56076;DHT22;41951;49.022;12.066;2022-12-08T16:05:23;0.90;99.90
56076;DHT22;41951;49.022;12.066;2022-12-08T16:07:49;0.90;99.90
56076;DHT22;41951;49.022;12.066;2022-12-08T16:10:17;0.80;99.90
56076;DHT22;41951;49.022;12.066;2022-12-08T16:12:43;1.10;99.90
56076;DHT22;41951;49.022;12.066;2022-12-08T16:15:28;0.80;99.90
56076;DHT22;41951;49.022;12.066;2022-12-08T16:17:54;0.80;99.90
56076;DHT22;41951;49.022;12.066;2022-12-08T16:20:21;0.90;99.90
56076;DHT22;41951;49.022;12.066;2022-12-08T16:22:47;1.00;99.90
56076;DHT22;41951;49.022;12.066;2022-12-08T16:25:13;1.00;99.90
56076;DHT22;41951;49.022;12.066;2022-12-08T16:27:40;1.10;99.90
56076;DHT22;41951;49.022;12.066;2022-12-08T16:30:10;1.10;99.90
56076;DHT22;41951;49.022;12.066;2022-12-08T16:32:36;1.20;99.90
56076;DHT22;41951;49.022;12.066;2022-12-08T16:35:02;1.10;99.90
56076;DHT22;41951;49.022;12.066;2022-12-08T16:37:27;1.20;99.90
56076;DHT22;41951;49.022;12.066;2022-12-08T16:39:55;1.20;99.90
56076;DHT22;41951;49.022;12.066;2022-12-08T16:42:29;1.20;99.90
56076;DHT22;41951;49.022;12.066;2022-12-08T16:47:31;1.30;99.90
56076;DHT22;41951;49.022;12.066;2022-12-08T16:49:57;1.30;99.90
56076;DHT22;41951;49.022;12.066;2022-12-08T16:52:23;1.30;99.90
56076;DHT22;41951;49.022;12.066;2022-12-08T16:54:49;1.30;99.90
56076;DHT22;41951;49.022;12.066;2022-12-08T16:57:14;1.30;99.90
56076;DHT22;41951;49.022;12.066;2022-12-08T16:59:40;1.40;99.90
56076;DHT22;41951;49.022;12.066;2022-12-08T17:02:06;1.30;99.90
56076;DHT22;41951;49.022;12.066;2022-12-08T17:04:32;1.30;99.90
56076;DHT22;41951;49.022;12.066;2022-12-08T17:06:58;1.30;99.90
56076;DHT22;41951;49.022;12.066;2022-12-08T17:09:24;1.20;99.90
56076;DHT22;41951;49.022;12.066;2022-12-08T17:11:50;1.10;99.90
56076;DHT22;41951;49.022;12.066;2022-12-08T17:14:16;1.20;99.90
56076;DHT22;41951;49.022;12.066;2022-12-08T17:16:43;1.20;99.90
56076;DHT22;41951;49.022;12.066;2022-12-08T17:19:09;1.10;99.90
56076;DHT22;41951;49.022;12.066;2022-12-08T17:21:36;1.10;99.90
56076;DHT22;41951;49.022;12.066;2022-12-08T17:24:02;1.10;99.90
56076;DHT22;41951;49.022;12.066;2022-12-08T17:26:28;1.10;99.90
56076;DHT22;41951;49.022;12.066;2022-12-08T17:28:53;1.10;99.90
56076;DHT22;41951;49.022;12.066;2022-12-08T17:31:19;1.10;99.90
56076;DHT22;41951;49.022;12.066;2022-12-08T17:33:45;1.00;99.90
56076;DHT22;41951;49.022;12.066;2022-12-08T17:36:14;1.00;99.90
56076;DHT22;41951;49.022;12.066;2022-12-08T17:38:40;1.10;99.90
56076;DHT22;41951;49.022;12.066;2022-12-08T17:41:07;1.20;99.90
56076;DHT22;41951;49.022;12.066;2022-12-08T17:43:33;1.20;99.90
56076;DHT22;41951;49.022;12.066;2022-12-08T17:45:59;1.20;99.90
56076;DHT22;41951;49.022;12.066;2022-12-08T17:48:26;1.30;99.90
56076;DHT22;41951;49.022;12.066;2022-12-08T17:50:52;1.30;99.90
56076;DHT22;41951;49.022;12.066;2022-12-08T17:53:18;1.30;99.90
56076;DHT22;41951;49.022;12.066;2022-12-08T17:55:54;1.40;99.90
56076;DHT22;41951;49.022;12.066;2022-12-08T17:58:21;1.40;99.90
56076;DHT22;41951;49.022;12.066;2022-12-08T18:00:47;1.40;99.90
56076;DHT22;41951;49.022;12.066;2022-12-08T18:03:13;1.40;99.90
56076;DHT22;41951;49.022;12.066;2022-12-08T18:05:39;1.50;99.90
56076;DHT22;41951;49.022;12.066;2022-12-08T18:08:05;1.50;99.90
56076;DHT22;41951;49.022;12.066;2022-12-08T18:10:31;1.50;99.90
56076;DHT22;41951;49.022;12.066;2022-12-08T18:12:56;1.50;99.90
56076;DHT22;41951;49.022;12.066;2022-12-08T18:15:23;1.50;99.90
56076;DHT22;41951;49.022;12.066;2022-12-08T18:17:49;1.50;99.90
56076;DHT22;41951;49.022;12.066;2022-12-08T18:20:15;1.50;99.90
56076;DHT22;41951;49.022;12.066;2022-12-08T18:22:41;1.50;99.90
56076;DHT22;41951;49.022;12.066;2022-12-08T18:25:08;1.50;99.90
56076;DHT22;41951;49.022;12.066;2022-12-08T18:27:34;1.50;99.90
56076;DHT22;41951;49.022;12.066;2022-12-08T18:30:00;1.50;99.90
56076;DHT22;41951;49.022;12.066;2022-12-08T18:32:27;1.50;99.90
56076;DHT22;41951;49.022;12.066;2022-12-08T18:34:55;1.50;99.90
56076;DHT22;41951;49.022;12.066;2022-12-08T18:37:20;1.40;99.90
56076;DHT22;41951;49.022;12.066;2022-12-08T18:39:46;1.30;99.90
56076;DHT22;41951;49.022;12.066;2022-12-08T18:42:12;1.20;99.90
56076;DHT22;41951;49.022;12.066;2022-12-08T18:44:57;1.10;99.90
56076;DHT22;41951;49.022;12.066;2022-12-08T18:47:34;1.20;99.90
56076;DHT22;41951;49.022;12.066;2022-12-08T18:50:00;1.30;99.90
56076;DHT22;41951;49.022;12.066;2022-12-08T18:52:27;1.30;99.90
56076;DHT22;41951;49.022;12.066;2022-12-08T18:54:53;1.30;99.90
56076;DHT22;41951;49.022;12.066;2022-12-08T18:57:22;1.30;99.90
56076;DHT22;41951;49.022;12.066;2022-12-08T19:00:00;1.30;99.90
56076;DHT22;41951;49.022;12.066;2022-12-08T19:02:36;1.30;99.90
56076;DHT22;41951;49.022;12.066;2022-12-08T19:05:03;1.20;99.90
56076;DHT22;41951;49.022;12.066;2022-12-08T19:07:29;1.30;99.90
56076;DHT22;41951;49.022;12.066;2022-12-08T19:09:55;1.30;99.90
56076;DHT22;41951;49.022;12.066;2022-12-08T19:12:21;1.20;99.90
56076;DHT22;41951;49.022;12.066;2022-12-08T19:14:46;1.20;99.90
56076;DHT22;41951;49.022;12.066;2022-12-08T19:17:12;1.20;99.90
56076;DHT22;41951;49.022;12.066;2022-12-08T19:19:38;1.20;99.90
56076;DHT22;41951;49.022;12.066;2022-12-08T19:22:06;1.20;99.90
56076;DHT22;41951;49.022;12.066;2022-12-08T19:24:32;1.10;99.90
56076;DHT22;41951;49.022;12.066;2022-12-08T19:27:06;1.20;99.90
56076;DHT22;41951;49.022;12.066;2022-12-08T19:29:32;1.20;99.90
56076;DHT22;41951;49.022;12.066;2022-12-08T19:32:00;1.10;99.90
56076;DHT22;41951;49.022;12.066;2022-12-08T19:34:27;1.60;99.90
56076;DHT22;41951;49.022;12.066;2022-12-08T19:36:55;1.10;99.90
56076;DHT22;41951;49.022;12.066;2022-12-08T19:39:22;1.70;99.90
56076;DHT22;41951;49.022;12.066;2022-12-08T19:42:18;1.20;99.90
56076;DHT22;41951;49.022;12.066;2022-12-08T19:45:11;1.20;99.90
56076;DHT22;41951;49.022;12.066;2022-12-08T19:47:38;1.20;99.90
56076;DHT22;41951;49.022;12.066;2022-12-08T19:50:08;1.40;99.90
56076;DHT22;41951;49.022;12.066;2022-12-08T19:53:00;1.30;99.90
56076;DHT22;41951;49.022;12.066;2022-12-08T19:55:29;1.30;99.90
56076;DHT22;41951;49.022;12.066;2022-12-08T19:57:55;1.30;99.90
56076;DHT22;41951;49.022;12.066;2022-12-08T20:00:26;1.40;99.90
56076;DHT22;41951;49.022;12.066;2022-12-08T20:02:52;1.40;99.90
56076;DHT22;41951;49.022;12.066;2022-12-08T20:05:20;1.50;99.90
56076;DHT22;41951;49.022;12.066;2022-12-08T20:07:46;1.40;99.90
56076;DHT22;41951;49.022;12.066;2022-12-08T20:10:19;1.50;99.90
56076;DHT22;41951;49.022;12.066;2022-12-08T20:12:46;1.50;99.90
56076;DHT22;41951;49.022;12.066;2022-12-08T20:15:12;1.50;99.90
56076;DHT22;41951;49.022;12.066;2022-12-08T20:17:39;1.60;99.90
56076;DHT22;41951;49.022;12.066;2022-12-08T20:20:06;1.60;99.90
56076;DHT22;41951;49.022;12.066;2022-12-08T20:22:32;1.70;99.90
56076;DHT22;41951;49.022;12.066;2022-12-08T20:24:58;1.70;99.90
56076;DHT22;41951;49.022;12.066;2022-12-08T20:27:23;1.70;99.90
56076;DHT22;41951;49.022;12.066;2022-12-08T20:29:49;1.70;99.90
56076;DHT22;41951;49.022;12.066;2022-12-08T20:32:15;3.50;99.90
56076;DHT22;41951;49.022;12.066;2022-12-08T20:34:41;1.60;99.90
56076;DHT22;41951;49.022;12.066;2022-12-08T20:37:06;2.00;99.90
56076;DHT22;41951;49.022;12.066;2022-12-08T20:39:32;1.60;99.90